Time;durP1;ratioP1;P1;durP2;ratioP2;P2;SDS_P1;SDS_P2;PMS_P1;PMS_P2;Temp;Humidity;BMP_temperature;BMP_pressure;BME280_temperature;BME280_humidity;BME280_pressure;Samples;Min_cycle;Max_cycle;Signal;HPM_P1;HPM_P2
2022/12/16 00:01:14;;;;;;;30.9;17.8;;;;;;;2.34;94.72754;920.7478;;;;
2022/12/16 00:03:38;;;;;;;31.4;18;;;;;;;2.44;94.52734;920.7894;;;;
2022/12/16 00:06:04;;;;;;;32;18;;;;;;;2.42;94.50098;920.7302;;;;
2022/12/16 00:08:32;;;;;;;30.9;17.8;;;;;;;2.54;94.15723;920.7975;;;;
2022/12/16 00:11:08;;;;;;;30.6;17.8;;;;;;;2.61;93.76855;920.6602;;;;
2022/12/16 00:13:53;;;;;;;32.4;17.8;;;;;;;2.71;93.5791;920.75;;;;
2022/12/16 00:16:33;;;;;;;32.5;17.6;;;;;;;2.79;93.12402;920.8247;;;;
2022/12/16 00:19:08;;;;;;;30.5;17.4;;;;;;;2.84;92.84473;920.8372;;;;
2022/12/16 00:21:45;;;;;;;31.4;17.8;;;;;;;2.86;92.7832;920.872;;;;
2022/12/16 00:24:17;;;;;;;29.9;17.9;;;;;;;2.86;92.75879;920.9073;;;;
2022/12/16 00:27:06;;;;;;;32.9;18.4;;;;;;;2.78;93.00098;920.8113;;;;
2022/12/16 00:29:43;;;;;;;32.6;18.1;;;;;;;2.69;93.39355;920.9006;;;;
2022/12/16 00:32:09;;;;;;;35.4;19.4;;;;;;;2.5;93.91211;920.9321;;;;
2022/12/16 00:34:37;;;;;;;32.5;18;;;;;;;2.5;94.23926;921.0012;;;;
2022/12/16 00:37:13;;;;;;;31;18.2;;;;;;;2.55;94.33887;921.0246;;;;
2022/12/16 00:39:42;;;;;;;32;18.4;;;;;;;2.48;94.63867;921.0938;;;;
2022/12/16 00:42:12;;;;;;;31;17.5;;;;;;;2.5;94.31543;921.0978;;;;
2022/12/16 00:44:38;;;;;;;34.8;18.8;;;;;;;2.57;94.01758;921.028;;;;
2022/12/16 00:47:03;;;;;;;32.8;19;;;;;;;2.5;94.125;921.1567;;;;
2022/12/16 00:49:28;;;;;;;31.4;18.4;;;;;;;2.59;94.08887;921.1617;;;;
2022/12/16 00:51:53;;;;;;;28.9;15.9;;;;;;;2.61;93.89355;921.2509;;;;
2022/12/16 00:54:18;;;;;;;30.6;16.9;;;;;;;2.26;94.53027;921.2424;;;;
2022/12/16 00:56:43;;;;;;;27.5;16.1;;;;;;;2.46;94.82324;921.2859;;;;
2022/12/16 00:59:09;;;;;;;28.5;17.2;;;;;;;2.59;94.36035;921.3024;;;;
2022/12/16 01:01:34;;;;;;;30.9;17.5;;;;;;;2.68;93.85156;921.3224;;;;
2022/12/16 01:04:02;;;;;;;31.2;18.1;;;;;;;2.71;93.46484;921.3212;;;;
2022/12/16 01:06:27;;;;;;;30.5;17.8;;;;;;;2.6;93.59766;921.3723;;;;
2022/12/16 01:08:53;;;;;;;27.8;16.7;;;;;;;2.64;93.4375;921.377;;;;
2022/12/16 01:11:18;;;;;;;27.3;16.8;;;;;;;2.69;93.20508;921.4177;;;;
2022/12/16 01:13:46;;;;;;;27.7;16.7;;;;;;;2.77;92.88477;921.4311;;;;
2022/12/16 01:16:11;;;;;;;25.7;15.7;;;;;;;2.72;92.62793;921.4501;;;;
2022/12/16 01:18:38;;;;;;;26.1;15.8;;;;;;;2.68;92.73242;921.4199;;;;
2022/12/16 01:21:03;;;;;;;25.8;16;;;;;;;2.73;92.59668;921.4425;;;;
2022/12/16 01:23:30;;;;;;;25.9;16;;;;;;;2.68;92.79785;921.493;;;;
2022/12/16 01:25:55;;;;;;;26.4;16.2;;;;;;;2.79;92.6084;921.5005;;;;
2022/12/16 01:28:24;;;;;;;26.4;16.8;;;;;;;2.83;92.33984;921.4832;;;;
2022/12/16 01:30:49;;;;;;;24.6;15.2;;;;;;;2.81;92.05371;921.4963;;;;
2022/12/16 01:33:17;;;;;;;23.5;15.1;;;;;;;2.86;91.79395;921.4709;;;;
2022/12/16 01:35:42;;;;;;;24.1;15;;;;;;;2.78;91.58789;921.4525;;;;
2022/12/16 01:38:12;;;;;;;25.9;15.8;;;;;;;2.5;92.80469;921.4261;;;;
2022/12/16 01:40:38;;;;;;;24.6;15.6;;;;;;;2.59;92.48633;921.3887;;;;
2022/12/16 01:43:04;;;;;;;25.1;15.7;;;;;;;2.61;92.57031;921.4435;;;;
2022/12/16 01:45:33;;;;;;;24.9;15.5;;;;;;;2.75;92.48828;921.4953;;;;
2022/12/16 01:47:58;;;;;;;26.3;16;;;;;;;2.8;92.26465;921.4341;;;;
2022/12/16 01:50:25;;;;;;;23.6;15.5;;;;;;;2.63;92.26074;921.4084;;;;
2022/12/16 01:52:50;;;;;;;25.5;15.8;;;;;;;2.66;92.36719;921.4763;;;;
2022/12/16 01:55:18;;;;;;;24.9;14.5;;;;;;;2.78;92.21582;921.5279;;;;
2022/12/16 01:58:05;;;;;;;24.4;14.8;;;;;;;2.82;91.93164;921.4941;;;;
2022/12/16 02:00:32;;;;;;;26;15.4;;;;;;;2.72;91.7627;921.5098;;;;
2022/12/16 02:02:57;;;;;;;22.4;14.3;;;;;;;2.8;91.58008;921.5002;;;;
2022/12/16 02:05:25;;;;;;;23.8;14.7;;;;;;;2.87;91.51563;921.4875;;;;
2022/12/16 02:07:50;;;;;;;23.7;14.6;;;;;;;2.88;91.2373;921.5938;;;;
2022/12/16 02:10:16;;;;;;;20.9;13.8;;;;;;;2.68;91.11816;921.5496;;;;
2022/12/16 02:12:43;;;;;;;21.5;13.2;;;;;;;2.54;91.86035;921.579;;;;
2022/12/16 02:15:09;;;;;;;20.7;12.9;;;;;;;2.58;91.78027;921.5559;;;;
2022/12/16 02:17:34;;;;;;;21.4;13.6;;;;;;;2.31;93.00781;921.5994;;;;
2022/12/16 02:20:03;;;;;;;23;13.4;;;;;;;2.39;93.10645;921.5613;;;;
2022/12/16 02:22:26;;;;;;;22.1;13.3;;;;;;;2.5;92.70215;921.6068;;;;
2022/12/16 02:24:51;;;;;;;21.4;13.3;;;;;;;2.35;92.89453;921.5403;;;;
2022/12/16 02:27:19;;;;;;;20.5;13.2;;;;;;;2.54;92.56641;921.6176;;;;
2022/12/16 02:29:45;;;;;;;20.2;12.4;;;;;;;2.56;92.2002;921.6682;;;;
2022/12/16 02:32:09;;;;;;;19.4;12.4;;;;;;;2.5;92.23145;921.6328;;;;
2022/12/16 02:34:35;;;;;;;18.1;12.1;;;;;;;2.57;92.0459;921.7349;;;;
2022/12/16 02:37:00;;;;;;;17.8;11.8;;;;;;;2.51;91.66211;921.7122;;;;
2022/12/16 02:39:25;;;;;;;18.9;11.7;;;;;;;2.43;92.31836;921.7065;;;;
2022/12/16 02:41:50;;;;;;;17.5;11.5;;;;;;;2.52;91.87891;921.6086;;;;
2022/12/16 02:44:15;;;;;;;15.6;10.8;;;;;;;2.17;92.23926;921.6994;;;;
2022/12/16 02:46:41;;;;;;;15.6;10;;;;;;;2.1;93.29785;921.7659;;;;
2022/12/16 02:49:09;;;;;;;13.8;9.7;;;;;;;1.95;93.52344;921.7786;;;;
2022/12/16 02:52:06;;;;;;;14.3;9.9;;;;;;;1.91;94.14063;921.7866;;;;
2022/12/16 02:54:33;;;;;;;13.4;8.9;;;;;;;2.17;93.49316;921.832;;;;
2022/12/16 02:56:58;;;;;;;11.9;8.5;;;;;;;2.31;92.73926;921.8507;;;;
2022/12/16 02:59:23;;;;;;;11.9;8;;;;;;;2.28;92.09473;921.9178;;;;
2022/12/16 03:01:48;;;;;;;11.7;8.5;;;;;;;2.35;92.14355;921.9761;;;;
2022/12/16 03:04:14;;;;;;;10.6;8;;;;;;;2.41;91.97852;922.0032;;;;
2022/12/16 03:06:42;;;;;;;10.1;7.2;;;;;;;2.26;91.86719;921.913;;;;
2022/12/16 03:09:07;;;;;;;10.6;7.3;;;;;;;2.16;92.3916;922.0085;;;;
2022/12/16 03:11:34;;;;;;;10.4;7.7;;;;;;;2.25;92.50293;922.0565;;;;
2022/12/16 03:13:59;;;;;;;10.4;7.5;;;;;;;2.16;92.47266;922.168;;;;
2022/12/16 03:16:24;;;;;;;10.8;7.7;;;;;;;2.18;92.53223;922.0992;;;;
2022/12/16 03:18:52;;;;;;;10.5;7.8;;;;;;;2.22;92.21582;922.0073;;;;
2022/12/16 03:21:17;;;;;;;11.4;8.2;;;;;;;2.03;92.90137;922.0781;;;;
2022/12/16 03:23:42;;;;;;;11.4;7.5;;;;;;;2.15;93.03027;922.0783;;;;
2022/12/16 03:26:10;;;;;;;11.6;7.9;;;;;;;2.15;92.81738;922.1301;;;;
2022/12/16 03:28:37;;;;;;;14.6;9.1;;;;;;;2.22;92.66309;922.1094;;;;
2022/12/16 03:31:02;;;;;;;13.4;9.5;;;;;;;2.23;92.35156;922.1111;;;;
2022/12/16 03:33:27;;;;;;;13.1;8.6;;;;;;;2.23;92.30859;922.0264;;;;
2022/12/16 03:35:58;;;;;;;13.2;8.2;;;;;;;2.08;92.51074;922.1222;;;;
2022/12/16 03:38:20;;;;;;;12.1;8.3;;;;;;;1.96;93.10938;922.1843;;;;
2022/12/16 03:40:46;;;;;;;14.3;9;;;;;;;2.01;93.30078;922.1406;;;;
2022/12/16 03:43:12;;;;;;;14.2;9.6;;;;;;;2.01;93.03223;922.1775;;;;
2022/12/16 03:45:36;;;;;;;13.1;9;;;;;;;1.71;94.53027;922.1433;;;;
2022/12/16 03:48:01;;;;;;;13.1;9.4;;;;;;;1.65;94.94531;922.2664;;;;
2022/12/16 03:50:33;;;;;;;12.2;8.8;;;;;;;1.87;94.64551;922.2567;;;;
2022/12/16 03:53:02;;;;;;;14.8;9.4;;;;;;;2.08;93.71777;922.2609;;;;
2022/12/16 03:55:27;;;;;;;12.8;8.6;;;;;;;2.04;93.39648;922.291;;;;
2022/12/16 03:57:56;;;;;;;13;8.8;;;;;;;1.8;94.15918;922.311;;;;
2022/12/16 04:02:34;;;;;;;14;9.3;;;;;;;1.83;94.21191;922.3699;;;;
2022/12/16 04:05:29;;;;;;;12.9;8.4;;;;;;;1.76;94.21777;922.4116;;;;
2022/12/16 04:07:59;;;;;;;12.1;8.4;;;;;;;1.81;94.0625;922.4763;;;;
2022/12/16 04:25:44;;;;;;;10.7;7.8;;;;;;;2.06;92.4375;922.6359;;;;
2022/12/16 04:28:11;;;;;;;10.7;7.8;;;;;;;1.99;92.78418;922.688;;;;
2022/12/16 04:30:36;;;;;;;10.4;7.4;;;;;;;2.06;92.53809;922.7183;;;;
